Flight Track Log - Related Links

Times and Time Zones

All times are in EDT time to prevent confusion due to time zone crossing. See the N9791F flight status page for this flight to view local times or setup timezone preferences in your user account.

Time Position Orientation Groundspeed Altitude Reporting Facility
EDT Latitude Longitude Course Direction KTS MPH feet Rate Location/Type
Sat 05:07:28 PM 34.6147 -86.9706 256° West 123 142 6,500  Level Memphis Center
Sat 05:08:28 PM 34.6094 -87.0086 260° West 123 142 6,500  Level Memphis Center
Sat 05:09:28 PM 34.6003 -87.0494 255° West 123 142 6,500  Level Memphis Center
Sat 05:10:28 PM 34.5950 -87.0875 260° West 117 135 6,500  Level Memphis Center
Sat 05:11:00 PM 34.5870 -87.1692 257° West  Level Estimated
Sat 05:11:28 PM 34.5875 -87.1281 257° West 122 140 6,500  Level Memphis Center
Sat 05:12:00 PM 34.5794 -87.2063 256° West  Level FlightAware Approximate
Sat 05:12:28 PM 34.5803 -87.1686 258° West 127 146 6,400  Level Memphis Center
Sat 05:13:28 PM 34.5731 -87.2069 257° West 122 140 6,500 50 Climbing Memphis Center
Sat 05:14:28 PM 34.5656 -87.2450 257° West 122 140 6,500 50 Level Memphis Center
Sat 05:15:28 PM 34.5561 -87.2856 254° West 122 140 6,600 50 Climbing Memphis Center
Sat 05:16:28 PM 34.5508 -87.3211 260° West 122 140 6,600  Level Memphis Center
Sat 05:17:29 PM 34.5433 -87.3617 257° West 122 140 6,600 -50 Level Memphis Center
Sat 05:18:28 PM 34.5361 -87.4022 258° West 122 140 6,500 -50 Descending Memphis Center
Sat 05:19:28 PM 34.5286 -87.4403 257° West 122 140 6,500  Level Memphis Center
Sat 05:20:28 PM 34.5211 -87.4808 257° West 122 140 6,500  Level Memphis Center
Sat 05:21:28 PM 34.5158 -87.5189 260° West 122 140 6,500  Level Memphis Center
Sat 05:22:28 PM 34.5083 -87.5594 257° West 122 140 6,500 -50 Level Memphis Center
Sat 05:23:28 PM 34.4989 -87.6000 254° West 122 140 6,400 -50 Descending Memphis Center
Sat 05:24:29 PM 34.4914 -87.6408 257° West 122 140 6,400 -50 Level Memphis Center
Sat 05:25:28 PM 34.4839 -87.6789 257° West 122 140 6,300  Descending Memphis Center
Sat 05:26:28 PM 34.4764 -87.7167 256° West 122 140 6,400 50 Climbing Memphis Center
Sat 05:27:28 PM 34.4689 -87.7547 257° West 122 140 6,400  Level Memphis Center
Sat 05:28:28 PM 34.4611 -87.7903 255° West 122 140 6,400  Level Memphis Center
Sat 05:29:28 PM 34.4536 -87.8283 257° West 122 140 6,400 50 Level Memphis Center
Sat 05:30:28 PM 34.4461 -87.8689 257° West 122 140 6,500  Climbing Memphis Center
Sat 05:31:29 PM 34.4406 -87.9042 259° West 122 140 6,400 -50 Descending Memphis Center
Sat 05:32:28 PM 34.4331 -87.9422 257° West 122 140 6,400 50 Level Memphis Center
Sat 05:33:28 PM 34.4253 -87.9828 257° West 122 140 6,500 50 Climbing Memphis Center
Sat 05:34:28 PM 34.4178 -88.0208 257° West 122 140 6,500 -50 Level Memphis Center
Sat 05:35:28 PM 34.4100 -88.0586 256° West 122 140 6,400 -50 Descending Memphis Center
Sat 05:36:28 PM 34.4025 -88.0992 257° West 122 140 6,400 50 Level Memphis Center
Sat 05:37:28 PM 34.3950 -88.1397 257° West 122 140 6,500 50 Climbing Memphis Center
Sat 05:38:29 PM 34.3872 -88.1775 256° West 122 140 6,500  Level Memphis Center
Sat 05:39:28 PM 34.3794 -88.2156 256° West 122 140 6,500  Level Memphis Center
Sat 05:40:28 PM 34.3719 -88.2561 257° West 122 140 6,500  Level Memphis Center
Sat 05:41:28 PM 34.3642 -88.2939 256° West 122 140 6,500  Level Memphis Center
Sat 05:42:28 PM 34.3564 -88.3344 257° West 122 140 6,500  Level Memphis Center
Sat 05:43:28 PM 34.3489 -88.3722 256° West 122 140 6,500  Level Memphis Center
Sat 05:44:28 PM 34.3411 -88.4103 256° West 122 140 6,500  Level Memphis Center
Sat 05:45:29 PM 34.3333 -88.4506 257° West 122 140 6,500  Level Memphis Center
Sat 05:46:28 PM 34.3256 -88.4911 257° West 122 140 6,500 50 Level Memphis Center
Sat 05:47:28 PM 34.3178 -88.5264 255° West 122 140 6,600  Climbing Memphis Center
Sat 05:48:28 PM 34.3100 -88.5667 257° West 122 140 6,500 -100 Descending Memphis Center

Login

Don't have an account? Register now (free) for customized features, flight alerts, and more!